sensor_id;sensor_type;location;lat;lon;timestamp;pressure;altitude;pressure_sealevel;temperature;humidity
51468;BME280;37545;45.302;-122.946;2024-03-08T00:01:05;101636.69;;;12.66;32.17
51468;BME280;37545;45.302;-122.946;2024-03-08T00:03:34;101634.00;;;12.63;32.79
51468;BME280;37545;45.302;-122.946;2024-03-08T00:06:06;101637.75;;;12.47;32.47
51468;BME280;37545;45.302;-122.946;2024-03-08T00:08:37;101633.56;;;12.51;33.06
51468;BME280;37545;45.302;-122.946;2024-03-08T00:11:06;101631.19;;;12.57;33.87
51468;BME280;37545;45.302;-122.946;2024-03-08T00:13:37;101639.97;;;12.61;34.65
51468;BME280;37545;45.302;-122.946;2024-03-08T00:16:06;101641.72;;;12.62;34.57
51468;BME280;37545;45.302;-122.946;2024-03-08T00:18:35;101636.59;;;12.63;32.34
51468;BME280;37545;45.302;-122.946;2024-03-08T00:21:04;101640.84;;;12.61;32.40
51468;BME280;37545;45.302;-122.946;2024-03-08T00:23:35;101636.19;;;12.51;31.40
51468;BME280;37545;45.302;-122.946;2024-03-08T00:26:04;101641.59;;;12.33;32.05
51468;BME280;37545;45.302;-122.946;2024-03-08T00:28:33;101636.00;;;12.22;32.95
51468;BME280;37545;45.302;-122.946;2024-03-08T00:31:09;101636.09;;;12.25;31.79
51468;BME280;37545;45.302;-122.946;2024-03-08T00:33:38;101638.66;;;12.24;33.43
51468;BME280;37545;45.302;-122.946;2024-03-08T00:36:07;101642.13;;;12.24;32.64
51468;BME280;37545;45.302;-122.946;2024-03-08T00:38:41;101633.66;;;12.06;32.68
51468;BME280;37545;45.302;-122.946;2024-03-08T00:41:10;101636.72;;;11.95;31.98
51468;BME280;37545;45.302;-122.946;2024-03-08T00:43:39;101641.09;;;11.97;32.87
51468;BME280;37545;45.302;-122.946;2024-03-08T00:46:11;101628.22;;;12.00;32.58
51468;BME280;37545;45.302;-122.946;2024-03-08T00:48:43;101632.59;;;12.01;33.55
51468;BME280;37545;45.302;-122.946;2024-03-08T00:51:13;101630.06;;;12.02;32.74
51468;BME280;37545;45.302;-122.946;2024-03-08T00:53:42;101640.16;;;11.94;32.32
51468;BME280;37545;45.302;-122.946;2024-03-08T00:56:11;101636.31;;;11.86;33.02
51468;BME280;37545;45.302;-122.946;2024-03-08T00:58:40;101638.72;;;11.80;33.84
51468;BME280;37545;45.302;-122.946;2024-03-08T01:01:15;101638.94;;;11.86;33.81
51468;BME280;37545;45.302;-122.946;2024-03-08T01:03:44;101631.72;;;11.79;35.10
51468;BME280;37545;45.302;-122.946;2024-03-08T01:06:12;101635.06;;;11.75;33.20
51468;BME280;37545;45.302;-122.946;2024-03-08T01:08:41;101629.50;;;11.66;33.05
51468;BME280;37545;45.302;-122.946;2024-03-08T01:11:12;101631.03;;;11.61;35.55
51468;BME280;37545;45.302;-122.946;2024-03-08T01:13:41;101626.59;;;11.58;34.73
51468;BME280;37545;45.302;-122.946;2024-03-08T01:16:15;101642.81;;;11.52;35.48
51468;BME280;37545;45.302;-122.946;2024-03-08T01:18:45;101640.81;;;11.45;37.11
51468;BME280;37545;45.302;-122.946;2024-03-08T01:21:15;101646.69;;;11.41;39.74
51468;BME280;37545;45.302;-122.946;2024-03-08T01:23:43;101639.59;;;11.37;38.35
51468;BME280;37545;45.302;-122.946;2024-03-08T01:26:12;101645.53;;;11.35;38.40
51468;BME280;37545;45.302;-122.946;2024-03-08T01:28:41;101648.75;;;11.29;38.70
51468;BME280;37545;45.302;-122.946;2024-03-08T01:31:14;101665.03;;;11.25;39.34
51468;BME280;37545;45.302;-122.946;2024-03-08T01:33:45;101658.88;;;11.23;36.76
51468;BME280;37545;45.302;-122.946;2024-03-08T01:36:14;101663.22;;;11.24;38.08
51468;BME280;37545;45.302;-122.946;2024-03-08T01:38:49;101651.81;;;11.19;37.50
51468;BME280;37545;45.302;-122.946;2024-03-08T01:41:18;101662.84;;;11.15;37.96
51468;BME280;37545;45.302;-122.946;2024-03-08T01:43:47;101664.38;;;11.09;39.49
51468;BME280;37545;45.302;-122.946;2024-03-08T01:46:19;101664.66;;;10.96;39.44
51468;BME280;37545;45.302;-122.946;2024-03-08T01:48:59;101666.03;;;10.88;38.36
51468;BME280;37545;45.302;-122.946;2024-03-08T01:51:34;101664.91;;;10.81;37.87
51468;BME280;37545;45.302;-122.946;2024-03-08T01:54:04;101669.19;;;10.81;38.23
51468;BME280;37545;45.302;-122.946;2024-03-08T02:04:54;101656.75;;;10.53;43.74
51468;BME280;37545;45.302;-122.946;2024-03-08T02:07:23;101660.78;;;10.46;40.81
51468;BME280;37545;45.302;-122.946;2024-03-08T02:09:52;101662.19;;;10.39;43.06
51468;BME280;37545;45.302;-122.946;2024-03-08T02:12:21;101661.94;;;10.33;48.98
51468;BME280;37545;45.302;-122.946;2024-03-08T02:14:57;101661.53;;;10.25;46.84
51468;BME280;37545;45.302;-122.946;2024-03-08T02:17:26;101650.78;;;10.16;42.73
51468;BME280;37545;45.302;-122.946;2024-03-08T02:20:02;101653.91;;;10.09;43.71
51468;BME280;37545;45.302;-122.946;2024-03-08T02:22:32;101656.94;;;10.00;44.74
51468;BME280;37545;45.302;-122.946;2024-03-08T02:25:05;101658.38;;;9.94;42.86
51468;BME280;37545;45.302;-122.946;2024-03-08T02:27:37;101659.56;;;9.82;42.25
51468;BME280;37545;45.302;-122.946;2024-03-08T02:30:10;101660.91;;;9.74;42.09
51468;BME280;37545;45.302;-122.946;2024-03-08T02:32:47;101669.94;;;9.64;45.60
51468;BME280;37545;45.302;-122.946;2024-03-08T02:37:57;101664.53;;;9.42;44.03
51468;BME280;37545;45.302;-122.946;2024-03-08T02:40:27;101664.16;;;9.34;43.65
51468;BME280;37545;45.302;-122.946;2024-03-08T02:42:56;101663.88;;;9.28;44.32
51468;BME280;37545;45.302;-122.946;2024-03-08T02:48:00;101671.81;;;9.15;47.80
51468;BME280;37545;45.302;-122.946;2024-03-08T02:50:29;101669.75;;;9.08;48.56
51468;BME280;37545;45.302;-122.946;2024-03-08T02:53:00;101667.81;;;9.04;49.94
51468;BME280;37545;45.302;-122.946;2024-03-08T02:55:29;101673.56;;;8.98;51.55
51468;BME280;37545;45.302;-122.946;2024-03-08T02:58:07;101662.59;;;8.86;52.35
51468;BME280;37545;45.302;-122.946;2024-03-08T03:00:37;101673.50;;;8.80;55.61
51468;BME280;37545;45.302;-122.946;2024-03-08T03:03:07;101672.59;;;8.79;64.42
51468;BME280;37545;45.302;-122.946;2024-03-08T03:05:36;101675.84;;;8.75;65.63
51468;BME280;37545;45.302;-122.946;2024-03-08T03:08:06;101677.13;;;8.67;55.47
51468;BME280;37545;45.302;-122.946;2024-03-08T03:10:35;101681.19;;;8.62;56.93
51468;BME280;37545;45.302;-122.946;2024-03-08T03:13:04;101662.31;;;8.47;53.99
51468;BME280;37545;45.302;-122.946;2024-03-08T03:15:33;101676.91;;;8.46;60.59
51468;BME280;37545;45.302;-122.946;2024-03-08T03:18:05;101675.31;;;8.33;59.60
51468;BME280;37545;45.302;-122.946;2024-03-08T03:20:34;101679.44;;;8.30;58.00
51468;BME280;37545;45.302;-122.946;2024-03-08T03:23:11;101682.50;;;8.23;58.76
51468;BME280;37545;45.302;-122.946;2024-03-08T03:25:45;101684.13;;;8.21;61.34
51468;BME280;37545;45.302;-122.946;2024-03-08T03:28:16;101683.78;;;8.14;60.69
51468;BME280;37545;45.302;-122.946;2024-03-08T03:30:48;101671.19;;;8.04;54.76
51468;BME280;37545;45.302;-122.946;2024-03-08T03:33:17;101668.91;;;7.94;54.57
51468;BME280;37545;45.302;-122.946;2024-03-08T03:35:48;101682.09;;;7.84;55.67
51468;BME280;37545;45.302;-122.946;2024-03-08T03:38:19;101674.66;;;7.73;59.30
51468;BME280;37545;45.302;-122.946;2024-03-08T03:40:50;101681.41;;;7.71;61.88
51468;BME280;37545;45.302;-122.946;2024-03-08T03:43:23;101687.28;;;7.69;61.19
51468;BME280;37545;45.302;-122.946;2024-03-08T03:45:54;101687.84;;;7.63;58.83
51468;BME280;37545;45.302;-122.946;2024-03-08T03:48:22;101684.91;;;7.57;59.26
51468;BME280;37545;45.302;-122.946;2024-03-08T03:50:51;101683.31;;;7.44;63.01
51468;BME280;37545;45.302;-122.946;2024-03-08T03:53:24;101698.31;;;7.37;61.94
51468;BME280;37545;45.302;-122.946;2024-03-08T03:55:53;101703.94;;;7.29;59.78
51468;BME280;37545;45.302;-122.946;2024-03-08T03:58:22;101708.91;;;7.26;59.25
51468;BME280;37545;45.302;-122.946;2024-03-08T04:00:51;101709.53;;;7.22;58.06
51468;BME280;37545;45.302;-122.946;2024-03-08T04:03:20;101706.41;;;7.13;58.08
51468;BME280;37545;45.302;-122.946;2024-03-08T04:05:53;101704.09;;;7.03;62.13
51468;BME280;37545;45.302;-122.946;2024-03-08T04:08:24;101715.34;;;7.05;61.36
51468;BME280;37545;45.302;-122.946;2024-03-08T04:10:55;101713.31;;;6.99;60.64
51468;BME280;37545;45.302;-122.946;2024-03-08T04:13:27;101716.22;;;6.90;59.44
51468;BME280;37545;45.302;-122.946;2024-03-08T04:15:58;101714.16;;;6.85;59.18
51468;BME280;37545;45.302;-122.946;2024-03-08T04:18:27;101717.16;;;6.78;58.70
51468;BME280;37545;45.302;-122.946;2024-03-08T04:20:56;101714.25;;;6.71;60.69
51468;BME280;37545;45.302;-122.946;2024-03-08T04:23:26;101709.59;;;6.66;60.13
51468;BME280;37545;45.302;-122.946;2024-03-08T04:25:55;101711.00;;;6.61;59.81
51468;BME280;37545;45.302;-122.946;2024-03-08T04:28:23;101711.44;;;6.54;59.78
51468;BME280;37545;45.302;-122.946;2024-03-08T04:30:52;101716.41;;;6.50;60.42
51468;BME280;37545;45.302;-122.946;2024-03-08T04:33:21;101708.31;;;6.44;59.67
51468;BME280;37545;45.302;-122.946;2024-03-08T04:35:50;101712.19;;;6.38;60.45
51468;BME280;37545;45.302;-122.946;2024-03-08T04:38:20;101709.16;;;6.30;65.28
51468;BME280;37545;45.302;-122.946;2024-03-08T04:40:55;101720.81;;;6.25;71.04
51468;BME280;37545;45.302;-122.946;2024-03-08T04:43:24;101724.94;;;6.23;83.75
51468;BME280;37545;45.302;-122.946;2024-03-08T04:46:05;101719.63;;;6.20;86.48
51468;BME280;37545;45.302;-122.946;2024-03-08T04:48:34;101715.00;;;6.14;87.31
51468;BME280;37545;45.302;-122.946;2024-03-08T04:51:10;101729.16;;;6.07;85.17
51468;BME280;37545;45.302;-122.946;2024-03-08T04:53:39;101723.50;;;6.00;82.73
51468;BME280;37545;45.302;-122.946;2024-03-08T04:56:14;101729.91;;;5.93;77.84
51468;BME280;37545;45.302;-122.946;2024-03-08T04:58:43;101739.44;;;5.94;74.74
51468;BME280;37545;45.302;-122.946;2024-03-08T05:51:04;101749.84;;;5.06;73.69
51468;BME280;37545;45.302;-122.946;2024-03-08T05:53:34;101737.28;;;4.97;74.28
51468;BME280;37545;45.302;-122.946;2024-03-08T05:56:04;101747.91;;;4.90;78.01
51468;BME280;37545;45.302;-122.946;2024-03-08T05:58:33;101740.63;;;4.71;80.06
51468;BME280;37545;45.302;-122.946;2024-03-08T06:01:09;101746.50;;;4.56;82.41
51468;BME280;37545;45.302;-122.946;2024-03-08T06:03:39;101752.53;;;4.45;84.87
51468;BME280;37545;45.302;-122.946;2024-03-08T06:06:14;101745.88;;;4.35;86.64
51468;BME280;37545;45.302;-122.946;2024-03-08T06:08:49;101748.78;;;4.28;87.76
51468;BME280;37545;45.302;-122.946;2024-03-08T06:11:19;101740.56;;;4.20;88.51
51468;BME280;37545;45.302;-122.946;2024-03-08T06:13:49;101743.25;;;4.22;88.29
51468;BME280;37545;45.302;-122.946;2024-03-08T06:16:26;101739.31;;;4.27;87.85
51468;BME280;37545;45.302;-122.946;2024-03-08T06:18:58;101739.53;;;4.30;89.39
51468;BME280;37545;45.302;-122.946;2024-03-08T06:21:32;101730.28;;;4.32;90.33
51468;BME280;37545;45.302;-122.946;2024-03-08T09:36:56;101785.19;;;2.52;99.45
51468;BME280;37545;45.302;-122.946;2024-03-08T09:39:30;101785.72;;;2.48;100.00
51468;BME280;37545;45.302;-122.946;2024-03-08T09:42:00;101778.56;;;2.44;100.00
51468;BME280;37545;45.302;-122.946;2024-03-08T09:44:29;101777.91;;;2.46;100.00
51468;BME280;37545;45.302;-122.946;2024-03-08T09:47:05;101781.25;;;2.45;100.00
51468;BME280;37545;45.302;-122.946;2024-03-08T09:54:44;101774.41;;;2.34;100.00
51468;BME280;37545;45.302;-122.946;2024-03-08T09:57:18;101783.72;;;2.34;100.00
51468;BME280;37545;45.302;-122.946;2024-03-08T09:59:48;101788.34;;;2.27;100.00
51468;BME280;37545;45.302;-122.946;2024-03-08T10:02:21;101784.28;;;2.19;100.00
51468;BME280;37545;45.302;-122.946;2024-03-08T10:04:52;101782.91;;;2.13;100.00
51468;BME280;37545;45.302;-122.946;2024-03-08T10:07:21;101783.97;;;2.04;100.00
51468;BME280;37545;45.302;-122.946;2024-03-08T10:09:58;101785.63;;;2.04;100.00
51468;BME280;37545;45.302;-122.946;2024-03-08T10:12:37;101780.63;;;2.05;100.00
51468;BME280;37545;45.302;-122.946;2024-03-08T10:15:12;101782.00;;;2.12;100.00
51468;BME280;37545;45.302;-122.946;2024-03-08T10:17:46;101776.69;;;2.09;100.00
51468;BME280;37545;45.302;-122.946;2024-03-08T10:20:18;101768.50;;;2.03;100.00
51468;BME280;37545;45.302;-122.946;2024-03-08T10:22:53;101772.09;;;2.05;100.00
51468;BME280;37545;45.302;-122.946;2024-03-08T10:25:33;101766.19;;;2.06;100.00
51468;BME280;37545;45.302;-122.946;2024-03-08T10:28:03;101769.53;;;2.05;100.00
51468;BME280;37545;45.302;-122.946;2024-03-08T10:30:33;101766.97;;;2.05;100.00
51468;BME280;37545;45.302;-122.946;2024-03-08T10:33:02;101775.78;;;2.08;100.00
51468;BME280;37545;45.302;-122.946;2024-03-08T10:35:34;101773.34;;;2.10;100.00
51468;BME280;37545;45.302;-122.946;2024-03-08T10:38:05;101762.09;;;2.08;100.00
51468;BME280;37545;45.302;-122.946;2024-03-08T10:40:41;101770.91;;;2.12;100.00
51468;BME280;37545;45.302;-122.946;2024-03-08T10:43:21;101761.66;;;2.02;100.00
51468;BME280;37545;45.302;-122.946;2024-03-08T10:46:05;101765.84;;;2.01;100.00
51468;BME280;37545;45.302;-122.946;2024-03-08T10:48:47;101763.28;;;2.01;100.00
51468;BME280;37545;45.302;-122.946;2024-03-08T11:49:43;101740.00;;;1.86;100.00
51468;BME280;37545;45.302;-122.946;2024-03-08T11:52:22;101753.63;;;1.87;100.00
51468;BME280;37545;45.302;-122.946;2024-03-08T11:54:56;101743.66;;;1.90;100.00
51468;BME280;37545;45.302;-122.946;2024-03-08T11:57:27;101744.56;;;1.91;100.00
51468;BME280;37545;45.302;-122.946;2024-03-08T12:00:02;101743.28;;;1.96;100.00
51468;BME280;37545;45.302;-122.946;2024-03-08T12:02:35;101746.84;;;1.98;100.00
51468;BME280;37545;45.302;-122.946;2024-03-08T12:05:08;101741.25;;;1.92;100.00
51468;BME280;37545;45.302;-122.946;2024-03-08T12:07:43;101743.56;;;1.88;100.00
51468;BME280;37545;45.302;-122.946;2024-03-08T12:30:55;101738.38;;;1.66;100.00
51468;BME280;37545;45.302;-122.946;2024-03-08T12:33:25;101737.50;;;1.66;100.00
51468;BME280;37545;45.302;-122.946;2024-03-08T12:36:11;101736.72;;;1.67;100.00
51468;BME280;37545;45.302;-122.946;2024-03-08T12:38:44;101739.78;;;1.73;100.00
51468;BME280;37545;45.302;-122.946;2024-03-08T12:41:14;101738.47;;;1.78;100.00
51468;BME280;37545;45.302;-122.946;2024-03-08T12:43:47;101734.53;;;1.82;100.00
51468;BME280;37545;45.302;-122.946;2024-03-08T12:46:19;101742.53;;;1.86;100.00
51468;BME280;37545;45.302;-122.946;2024-03-08T12:48:48;101740.22;;;1.89;100.00
51468;BME280;37545;45.302;-122.946;2024-03-08T12:51:30;101742.91;;;1.91;100.00
51468;BME280;37545;45.302;-122.946;2024-03-08T12:54:00;101741.47;;;1.95;100.00
51468;BME280;37545;45.302;-122.946;2024-03-08T12:56:33;101734.38;;;1.91;100.00
51468;BME280;37545;45.302;-122.946;2024-03-08T12:59:07;101729.25;;;1.91;100.00
51468;BME280;37545;45.302;-122.946;2024-03-08T13:01:38;101731.31;;;1.84;100.00
51468;BME280;37545;45.302;-122.946;2024-03-08T13:04:09;101723.44;;;1.81;100.00
51468;BME280;37545;45.302;-122.946;2024-03-08T13:06:46;101721.09;;;1.84;100.00
51468;BME280;37545;45.302;-122.946;2024-03-08T13:09:16;101725.69;;;1.88;100.00
51468;BME280;37545;45.302;-122.946;2024-03-08T13:11:46;101712.16;;;1.89;100.00
51468;BME280;37545;45.302;-122.946;2024-03-08T13:14:15;101721.31;;;1.98;100.00
51468;BME280;37545;45.302;-122.946;2024-03-08T13:16:52;101714.53;;;1.98;100.00
51468;BME280;37545;45.302;-122.946;2024-03-08T15:09:34;101681.91;;;2.16;100.00
51468;BME280;37545;45.302;-122.946;2024-03-08T15:12:06;101689.28;;;2.23;100.00
51468;BME280;37545;45.302;-122.946;2024-03-08T15:14:40;101681.41;;;2.20;100.00
51468;BME280;37545;45.302;-122.946;2024-03-08T15:17:15;101680.38;;;2.18;100.00
51468;BME280;37545;45.302;-122.946;2024-03-08T15:19:48;101682.16;;;2.19;100.00
51468;BME280;37545;45.302;-122.946;2024-03-08T15:22:18;101693.25;;;2.20;100.00
51468;BME280;37545;45.302;-122.946;2024-03-08T15:24:54;101695.28;;;2.24;100.00
51468;BME280;37545;45.302;-122.946;2024-03-08T15:27:24;101702.25;;;2.37;100.00
51468;BME280;37545;45.302;-122.946;2024-03-08T15:29:55;101702.16;;;2.47;100.00
51468;BME280;37545;45.302;-122.946;2024-03-08T15:32:25;101698.78;;;2.58;100.00
51468;BME280;37545;45.302;-122.946;2024-03-08T15:34:59;101698.25;;;2.62;100.00
51468;BME280;37545;45.302;-122.946;2024-03-08T15:37:28;101699.25;;;2.64;100.00
51468;BME280;37545;45.302;-122.946;2024-03-08T15:39:59;101707.41;;;2.70;100.00
51468;BME280;37545;45.302;-122.946;2024-03-08T15:42:32;101715.19;;;2.84;100.00
51468;BME280;37545;45.302;-122.946;2024-03-08T15:45:07;101717.91;;;2.97;100.00
51468;BME280;37545;45.302;-122.946;2024-03-08T15:47:38;101708.69;;;2.99;100.00
51468;BME280;37545;45.302;-122.946;2024-03-08T15:50:12;101718.28;;;3.13;100.00
51468;BME280;37545;45.302;-122.946;2024-03-08T15:52:44;101714.09;;;3.26;100.00
51468;BME280;37545;45.302;-122.946;2024-03-08T15:55:18;101697.41;;;3.31;100.00
51468;BME280;37545;45.302;-122.946;2024-03-08T15:57:55;101713.09;;;3.47;100.00
51468;BME280;37545;45.302;-122.946;2024-03-08T16:00:26;101705.00;;;3.53;100.00
51468;BME280;37545;45.302;-122.946;2024-03-08T16:03:03;101704.13;;;3.64;100.00
51468;BME280;37545;45.302;-122.946;2024-03-08T16:05:38;101699.75;;;3.75;100.00
51468;BME280;37545;45.302;-122.946;2024-03-08T16:08:08;101693.28;;;3.80;100.00
51468;BME280;37545;45.302;-122.946;2024-03-08T16:10:44;101693.72;;;3.98;100.00
51468;BME280;37545;45.302;-122.946;2024-03-08T16:13:20;101702.97;;;4.08;100.00
51468;BME280;37545;45.302;-122.946;2024-03-08T16:15:50;101697.38;;;4.13;100.00
51468;BME280;37545;45.302;-122.946;2024-03-08T16:18:20;101691.78;;;4.19;100.00
51468;BME280;37545;45.302;-122.946;2024-03-08T16:20:53;101692.31;;;4.27;100.00
51468;BME280;37545;45.302;-122.946;2024-03-08T16:23:21;101688.84;;;4.38;100.00
51468;BME280;37545;45.302;-122.946;2024-03-08T16:25:54;101684.44;;;4.49;100.00
51468;BME280;37545;45.302;-122.946;2024-03-08T16:28:23;101666.91;;;4.55;100.00
51468;BME280;37545;45.302;-122.946;2024-03-08T16:30:57;101671.78;;;4.64;100.00
51468;BME280;37545;45.302;-122.946;2024-03-08T16:33:31;101671.31;;;4.69;100.00
51468;BME280;37545;45.302;-122.946;2024-03-08T16:36:01;101662.63;;;4.67;100.00
51468;BME280;37545;45.302;-122.946;2024-03-08T16:38:31;101662.66;;;4.80;100.00
51468;BME280;37545;45.302;-122.946;2024-03-08T16:41:16;101646.44;;;4.93;100.00
51468;BME280;37545;45.302;-122.946;2024-03-08T16:43:45;101647.94;;;5.03;100.00
51468;BME280;37545;45.302;-122.946;2024-03-08T16:46:21;101650.31;;;5.13;100.00
51468;BME280;37545;45.302;-122.946;2024-03-08T16:48:50;101645.97;;;5.25;100.00
51468;BME280;37545;45.302;-122.946;2024-03-08T16:51:19;101645.00;;;5.37;100.00
51468;BME280;37545;45.302;-122.946;2024-03-08T16:53:49;101643.13;;;5.48;100.00
51468;BME280;37545;45.302;-122.946;2024-03-08T16:56:21;101641.44;;;5.61;100.00
51468;BME280;37545;45.302;-122.946;2024-03-08T16:58:52;101651.50;;;5.85;100.00
51468;BME280;37545;45.302;-122.946;2024-03-08T17:01:21;101646.69;;;6.18;100.00
51468;BME280;37545;45.302;-122.946;2024-03-08T17:03:51;101651.88;;;6.61;96.68
51468;BME280;37545;45.302;-122.946;2024-03-08T17:06:27;101652.28;;;6.97;95.00
51468;BME280;37545;45.302;-122.946;2024-03-08T17:08:57;101628.75;;;7.20;92.44
51468;BME280;37545;45.302;-122.946;2024-03-08T17:11:46;101635.09;;;7.42;90.47
51468;BME280;37545;45.302;-122.946;2024-03-08T17:14:18;101624.84;;;7.58;88.59
51468;BME280;37545;45.302;-122.946;2024-03-08T17:32:30;101606.75;;;10.94;64.46
51468;BME280;37545;45.302;-122.946;2024-03-08T17:35:00;101613.81;;;11.40;60.10
51468;BME280;37545;45.302;-122.946;2024-03-08T17:37:29;101605.69;;;11.76;57.57
51468;BME280;37545;45.302;-122.946;2024-03-08T17:39:58;101611.28;;;12.09;54.65
51468;BME280;37545;45.302;-122.946;2024-03-08T17:42:32;101611.66;;;12.43;51.55
51468;BME280;37545;45.302;-122.946;2024-03-08T17:45:01;101613.22;;;12.63;51.69
51468;BME280;37545;45.302;-122.946;2024-03-08T17:47:34;101603.69;;;12.88;48.79
51468;BME280;37545;45.302;-122.946;2024-03-08T17:50:10;101595.56;;;13.04;49.01
51468;BME280;37545;45.302;-122.946;2024-03-08T17:52:43;101595.28;;;13.22;48.72
51468;BME280;37545;45.302;-122.946;2024-03-08T17:55:16;101586.81;;;13.28;44.26
51468;BME280;37545;45.302;-122.946;2024-03-08T17:57:57;101592.00;;;13.28;44.94
51468;BME280;37545;45.302;-122.946;2024-03-08T18:00:26;101595.09;;;13.43;44.16
51468;BME280;37545;45.302;-122.946;2024-03-08T18:03:14;101597.69;;;13.70;43.11
51468;BME280;37545;45.302;-122.946;2024-03-08T18:05:47;101596.44;;;13.88;43.74
51468;BME280;37545;45.302;-122.946;2024-03-08T18:08:19;101577.00;;;14.05;42.70
51468;BME280;37545;45.302;-122.946;2024-03-08T18:11:00;101581.75;;;14.20;42.78
51468;BME280;37545;45.302;-122.946;2024-03-08T18:13:29;101573.31;;;14.29;42.88
51468;BME280;37545;45.302;-122.946;2024-03-08T18:16:12;101571.69;;;14.32;40.16
51468;BME280;37545;45.302;-122.946;2024-03-08T18:18:43;101560.28;;;14.27;41.70
51468;BME280;37545;45.302;-122.946;2024-03-08T18:21:14;101566.47;;;14.32;41.15
51468;BME280;37545;45.302;-122.946;2024-03-08T18:23:53;101567.91;;;14.53;41.71
51468;BME280;37545;45.302;-122.946;2024-03-08T18:26:23;101548.97;;;14.58;42.45
51468;BME280;37545;45.302;-122.946;2024-03-08T18:28:53;101565.28;;;14.84;39.57
51468;BME280;37545;45.302;-122.946;2024-03-08T18:31:22;101559.59;;;15.02;39.02
51468;BME280;37545;45.302;-122.946;2024-03-08T23:25:54;100981.25;;;18.51;36.75
51468;BME280;37545;45.302;-122.946;2024-03-08T23:28:32;100976.00;;;18.47;37.08
51468;BME280;37545;45.302;-122.946;2024-03-08T23:31:10;100971.63;;;18.30;36.71
51468;BME280;37545;45.302;-122.946;2024-03-08T23:33:52;100970.75;;;18.33;37.30
51468;BME280;37545;45.302;-122.946;2024-03-08T23:36:21;100967.25;;;18.43;38.08
51468;BME280;37545;45.302;-122.946;2024-03-08T23:38:51;100960.25;;;18.53;38.01
51468;BME280;37545;45.302;-122.946;2024-03-08T23:41:25;100942.78;;;18.36;37.58
51468;BME280;37545;45.302;-122.946;2024-03-08T23:43:55;100943.66;;;18.25;37.57
51468;BME280;37545;45.302;-122.946;2024-03-08T23:46:25;100950.63;;;18.04;37.96
51468;BME280;37545;45.302;-122.946;2024-03-08T23:51:30;100944.41;;;17.79;38.61
51468;BME280;37545;45.302;-122.946;2024-03-08T23:54:00;100937.41;;;17.64;37.45
51468;BME280;37545;45.302;-122.946;2024-03-08T23:56:32;100938.19;;;17.46;38.50
51468;BME280;37545;45.302;-122.946;2024-03-08T23:59:02;100932.94;;;17.45;38.42
